• Join FlightAware (Why Join?)
  • Login
  • US Flag 
03:16AM EDT


 

Airport Tracker/Info


-or-


 

Live Flight TrackerFlight Track Log ✈ AAL1796 ✈ 20-Apr-2013 ✈ KDFW - KMCI

Flight Track Log - Related Links

Times and Time Zones

All times are in EDT time to prevent confusion due to time zone crossing. See the AAL1796 flight status page for this flight to view local times or setup timezone preferences in your user account.

Time Position Orientation Groundspeed Altitude Reporting Facility
EDT Latitude Longitude Course Direction KTS MPH feet Rate Location/Type
06:21PM 32.8833 -97.0500 331° Northwest 160 184 2,500  Level Dallas / Fort Worth TRACON
06:22PM 32.8333 -97.0667 196° South 219 252 4,600 2,820 Climbing Dallas / Fort Worth TRACON
06:23PM 32.7603 -96.8487 77° East  Level FlightAware Approximate
06:23PM 32.7667 -97.1000 203° Southwest 261 300 8,200  Level Dallas / Fort Worth TRACON
06:24PM 32.8591 -96.8000 North  Level FlightAware Approximate
06:24PM 32.7667 -97.1833 270° West 275 316 10,000  Level Dallas / Fort Worth TRACON
06:25PM 32.9805 -96.8000 North  Level FlightAware Approximate
06:25PM 32.8167 -97.2667 306° West 290 334 10,900  Level Dallas / Fort Worth TRACON
06:26PM 33.0887 -96.8646 331° Northwest  Level FlightAware Approximate
06:26PM 32.9000 -97.2747 355° North 339 390 12,600  Level Fort Worth Center
06:27PM 33.0150 -97.2697 North 356 410 15,800 2,400 Climbing Fort Worth Center
06:28PM 33.1131 -97.2347 17° North 383 441 17,400 2,040 Climbing Fort Worth Center
06:29PM 33.2403 -97.1875 17° North 422 486 19,900 2,400 Climbing Fort Worth Center
06:30PM 33.3633 -97.1447 16° North 442 509 22,300 1,860 Climbing Fort Worth Center
06:31PM 33.4758 -97.1072 16° North 454 522 23,700 1,680 Climbing Fort Worth Center
06:32PM 33.6011 -97.0617 17° North 468 539 25,700 1,980 Climbing Fort Worth Center
06:33PM 33.7303 -97.0189 15° North 473 544 27,700 1,920 Climbing Fort Worth Center
06:34PM 33.8553 -96.9733 17° North 473 544 29,600 1,560 Climbing Fort Worth Center
06:35PM 33.9806 -96.9325 15° North 473 544 30,900 660 Climbing Fort Worth Center
06:36PM 34.1139 -96.8842 17° North 465 535 31,000  Climbing Fort Worth Center
06:37PM 34.2431 -96.8406 16° North 465 535 31,000  Level Fort Worth Center
06:38PM 34.3681 -96.7947 17° North 460 529 31,000  Level Fort Worth Center
06:39PM 34.4950 -96.7533 15° North 460 529 31,000  Level Fort Worth Center
06:40PM 34.6219 -96.7069 17° North 460 529 31,000  Level Fort Worth Center
06:41PM 34.7450 -96.6606 17° North 455 524 31,000  Level Fort Worth Center
06:42PM 34.8719 -96.6139 17° North 455 524 31,000  Level Fort Worth Center
06:43PM 34.9967 -96.5694 16° North 455 524 31,000  Level Fort Worth Center
06:44PM 35.1217 -96.5278 15° North 455 524 31,000  Level Fort Worth Center
06:45PM 35.2442 -96.4806 17° North 455 524 31,000  Level Fort Worth Center
06:47PM 35.5117 -96.3828 17° North 469 540 31,000  Level Kansas City Center
06:48PM 35.6369 -96.3375 16° North 471 542 31,000  Level Kansas City Center
06:49PM 35.7628 -96.2917 16° North 472 543 31,000  Level Kansas City Center
06:50PM 35.8983 -96.2531 13° North 465 535 31,000  Level Kansas City Center
06:51PM 36.0264 -96.2194 12° North 465 535 31,000  Level Kansas City Center
06:52PM 36.1533 -96.1844 13° North 465 535 31,000  Level Kansas City Center
06:54PM 36.2786 -96.1500 12° North 460 529 31,000  Level Kansas City Center
06:55PM 36.4039 -96.1147 13° North 458 527 31,000  Level Kansas City Center
06:56PM 36.5317 -96.0789 13° North 462 532 31,000  Level Kansas City Center
06:57PM 36.6572 -96.0439 13° North 460 529 31,000  Level Kansas City Center
06:58PM 36.8081 -96.0014 13° North 458 527 31,000  Level Kansas City Center
06:59PM 36.9350 -95.9656 13° North 462 532 31,000  Level Kansas City Center
07:00PM 37.0611 -95.9300 13° North 462 532 31,000  Level Kansas City Center
07:01PM 37.1867 -95.8939 13° North 461 531 31,000  Level Kansas City Center
07:02PM 37.3128 -95.8586 13° North 461 531 31,000  Level Kansas City Center
07:03PM 37.4408 -95.8231 12° North 466 536 31,000  Level Kansas City Center
07:04PM 37.5689 -95.7856 13° North 469 540 31,000  Level Kansas City Center
07:05PM 37.6961 -95.7456 14° North 470 541 31,000 -60 Level Kansas City Center
07:06PM 37.8208 -95.7086 13° North 462 532 30,900 -840 Descending Kansas City Center
07:07PM 37.9675 -95.6711 11° North 467 537 29,300 -1,560 Descending Kansas City Center
07:08PM 38.0881 -95.6350 13° North 465 535 27,700 -1,800 Descending Kansas City Center
07:09PM 38.2100 -95.5992 13° North 468 539 25,700 -2,160 Descending Kansas City Center
07:10PM 38.3500 -95.5583 13° North 461 531 23,400 -2,220 Descending Kansas City Center
07:11PM 38.4642 -95.5233 13° North 444 511 21,200 -2,340 Descending Kansas City Center
07:12PM 38.5886 -95.4875 13° North 411 473 18,600 -2,280 Descending Kansas City Center
07:13PM 38.6903 -95.4567 13° North 393 452 16,600 -2,220 Descending Kansas City Center
07:14PM 38.8039 -95.4189 15° North 376 433 14,100 -2,100 Descending Kansas City Center
07:15PM 38.8703 -95.3283 47° Northeast 368 423 12,300 -1,260 Descending Kansas City Center
07:16PM 38.9225 -95.2414 52° Northeast 325 374 11,600 -660 Descending Kansas City Center
07:17PM 38.9831 -95.1572 47° Northeast 303 349 11,000 -300 Descending Kansas City Center
07:18PM 39.0414 -95.0894 42° Northeast 298 343 11,000  Level Kansas City Center
07:19PM 39.1025 -95.0000 49° Northeast 300 345 11,000 -360 Level Kansas City Center
07:20PM 39.1561 -94.9242 48° Northeast 300 345 10,300 -1,500 Descending Kansas City Center
07:21PM 39.2297 -94.8611 34° Northeast 296 341 8,000 -2,340 Descending Kansas City Center
07:22PM 39.3050 -94.8344 15° North 294 338 5,500 -1,800 Descending Kansas City Center
07:23PM 39.3825 -94.8097 14° North 253 291 4,400 -1,140 Descending Kansas City Center